Hardin, Kentucky
Current Conditions -  °F | °C
As of 6:15 PM on Monday 24 Nov 2014 (Local Time) from KCEY Reporting Station
Clear Clear  
Wind Chill: 42°   Ceiling: Unl
Heat Index: 45°   Visibility: 10mi
Dew Point: 32°   Wind: 5mph
Humidity: 61%   Direction: 220°SW
Pressure: 29.95"   Gusts: NA
Location:  36.76°N, 88.3°W
Report Text: KCEY 250015Z AUTO 22004KT 10SM CLR 07/00 A2995 RMK AO1
Loading
Personal Weather Stations






























Interactive Weather Map New forecast layout! Learn more

10-Day Weather Forecast

Advertisements
Track Severe Weather on mobile